METAR Data
IDs: Format: Raw Decoded Include TAF

Data at: 2140 UTC 08 Aug 2020

KTHA 082135Z AUTO 00000KT 10SM FEW060 FEW100 32/18 A3012 RMK A01
KTHA 082115Z AUTO 00000KT 10SM FEW100 31/17 A3013 RMK A01
KTHA 082055Z AUTO VRB04KT 10SM FEW070 SCT085 BKN100 31/18 A3013 RMK A01
KTHA 082035Z AUTO 08005KT 10SM FEW060 SCT070 BKN090 31/18 A3014 RMK A01
KTHA 082015Z AUTO 08005KT 10SM SCT060 BKN080 BKN090 31/19 A3014 RMK A01
KTHA 081955Z AUTO 00000KT 10SM FEW060 BKN080 BKN090 31/17 A3015 RMK A01
KTHA 081935Z AUTO 36005KT 10SM SCT060 32/18 A3015 RMK A01
KTHA 081915Z AUTO 00000KT 10SM BKN060 BKN065 31/18 A3015 RMK A01
KTHA 081855Z AUTO 07004KT 10SM FEW060 30/17 A3016 RMK A01
KTHA 081835Z AUTO VRB04KT 10SM SCT055 31/17 A3016 RMK A01
KTHA 081815Z AUTO VRB05KT 10SM SCT055 31/17 A3017 RMK A01
KTHA 081755Z AUTO 00000KT 10SM CLR 31/17 A3018 RMK A01
KTHA 081735Z AUTO VRB05KT 9SM CLR 31/17 A3017 RMK A01
KTHA 081715Z AUTO 34005KT 10SM CLR 31/18 A3018 RMK A01
KTHA 081655Z AUTO 29007KT 10SM CLR 31/18 A3018 RMK A01
KTHA 081635Z AUTO 23004KT 10SM CLR 30/19 A3018 RMK A01
KTHA 081615Z AUTO 00000KT 10SM CLR 30/18 A3018 RMK A01
KTHA 081555Z AUTO 00000KT 10SM CLR 29/17 A3018 RMK A01
KTHA 081535Z AUTO 00000KT 10SM CLR 29/17 A3018 RMK A01
KTHA 081515Z AUTO 00000KT 10SM CLR 28/18 A3018 RMK A01
KTHA 081455Z AUTO 00000KT 10SM CLR 28/18 A3018 RMK A01
KTHA 081435Z AUTO 00000KT 10SM CLR 27/19 A3018 RMK A01
KTHA 081415Z AUTO 00000KT 10SM CLR 26/19 A3018 RMK A01
KTHA 081355Z AUTO 00000KT 10SM CLR 25/19 A3018 RMK A01
KTHA 081335Z AUTO 00000KT 10SM CLR 24/20 A3018 RMK A01
KTHA 081315Z AUTO 00000KT 10SM CLR 23/19 A3018 RMK A01
KTHA 081255Z AUTO 00000KT 10SM CLR 22/19 A3018 RMK A01
KTHA 081235Z AUTO 07003KT 10SM CLR 21/19 A3018 RMK A01
KTHA 081215Z AUTO 00000KT 10SM CLR 20/19 A3018 RMK A01
KTHA 081155Z AUTO 00000KT 9SM CLR 18/17 A3017 RMK A01
KTHA 081135Z AUTO 00000KT 7SM CLR 17/16 A3017 RMK A01
KTHA 081115Z AUTO 00000KT 9SM CLR 17/16 A3016 RMK A01
KTHA 081055Z AUTO 00000KT 6SM BR CLR 17/16 A3015 RMK A01
KTHA 081035Z AUTO 00000KT 4SM BR CLR 17/16 A3014 RMK A01
KTHA 081015Z AUTO 00000KT 8SM CLR 17/17 A3014 RMK A01
KTHA 080955Z AUTO 00000KT 6SM BR CLR 17/16 A3015 RMK A01
KTHA 080935Z AUTO 00000KT 9SM CLR 18/17 A3015 RMK A01
KTHA 080915Z AUTO 00000KT 9SM CLR 18/17 A3014 RMK A01
KTHA 080855Z AUTO 00000KT 8SM CLR 18/17 A3014 RMK A01
KTHA 080835Z AUTO 00000KT 7SM CLR 17/17 A3014 RMK A01
KTHA 080815Z AUTO 00000KT 10SM CLR 18/17 A3014 RMK A01
KTHA 080755Z AUTO 00000KT 10SM CLR 19/17 A3013 RMK A01
KTHA 080735Z AUTO 00000KT 10SM CLR 18/17 A3014 RMK A01
KTHA 080715Z AUTO 00000KT 10SM CLR 19/18 A3013 RMK A01
KTHA 080655Z AUTO 00000KT 10SM CLR 19/17 A3014 RMK A01
KTHA 080635Z AUTO 00000KT 10SM CLR 20/18 A3014 RMK A01
KTHA 080615Z AUTO 00000KT 10SM CLR 20/18 A3013 RMK A01
KTHA 080555Z AUTO 00000KT 10SM CLR 20/18 A3014 RMK A01
KTHA 080535Z AUTO 00000KT 10SM CLR 20/18 A3014 RMK A01
KTHA 080515Z AUTO 00000KT 10SM CLR 21/18 A3014 RMK A01
KTHA 080455Z AUTO 00000KT 10SM CLR 22/19 A3014 RMK A01
KTHA 080435Z AUTO 00000KT 10SM CLR 23/19 A3014 RMK A01
KTHA 080415Z AUTO 07003KT 10SM CLR 23/19 A3014 RMK A01
KTHA 080355Z AUTO 00000KT 10SM CLR 22/19 A3013 RMK A01
KTHA 080335Z AUTO 00000KT 10SM CLR 21/18 A3013 RMK A01
KTHA 080315Z AUTO 00000KT 10SM CLR 21/18 A3013 RMK A01
KTHA 080255Z AUTO 00000KT 10SM CLR 22/19 A3013 RMK A01
KTHA 080235Z AUTO 00000KT 10SM CLR 22/19 A3013 RMK A01
KTHA 080215Z AUTO 00000KT 10SM CLR 22/19 A3012 RMK A01
KTHA 080155Z AUTO 00000KT 10SM CLR 24/19 A3012 RMK A01
KTHA 080135Z AUTO 00000KT 10SM CLR 25/18 A3011 RMK A01
KTHA 080115Z AUTO 00000KT 10SM CLR 25/19 A3011 RMK A01
KTHA 080055Z AUTO 01003KT 10SM CLR 26/19 A3010 RMK A01
KTHA 080035Z AUTO 36005KT 10SM CLR 26/19 A3010 RMK A01
KTHA 080015Z AUTO 36006KT 10SM CLR 27/19 A3010 RMK A01
KTHA 072355Z AUTO 01006KT 10SM CLR 28/19 A3009 RMK A01
KTHA 072335Z AUTO 01006KT 10SM CLR 28/18 A3009 RMK A01
KTHA 072315Z AUTO 36007KT 10SM CLR 29/18 A3008 RMK A01
KTHA 072255Z AUTO 01006KT 10SM CLR 29/18 A3008 RMK A01
KTHA 072235Z AUTO 36009KT 10SM CLR 30/18 A3008 RMK A01
KTHA 072215Z AUTO 34007KT 10SM CLR 30/17 A3008 RMK A01
KTHA 072155Z AUTO 35007G12KT 10SM CLR 30/18 A3008 RMK A01
KTHA 072135Z AUTO 01008KT 10SM CLR 30/18 A3008 RMK A01
KTHA 072115Z AUTO 02004G10KT 10SM FEW055 30/17 A3008 RMK A01
KTHA 072055Z AUTO 33009KT 10SM BKN055 30/18 A3009 RMK A01
KTHA 072035Z AUTO 33006KT 10SM SCT055 30/18 A3009 RMK A01
KTHA 072015Z AUTO 33005G11KT 10SM FEW050 31/18 A3010 RMK A01
KTHA 071955Z AUTO 29007KT 10SM FEW050 30/18 A3010 RMK A01
KTHA 071935Z AUTO 00000KT 10SM FEW050 30/17 A3010 RMK A01
KTHA 071915Z AUTO 03005KT 10SM FEW047 30/18 A3011 RMK A01
KTHA 071855Z AUTO 00000KT 10SM SCT046 29/18 A3011 RMK A01
KTHA 071835Z AUTO 00000KT 10SM CLR 30/18 A3011 RMK A01
KTHA 071815Z AUTO 28005KT 8SM CLR 29/19 A3011 RMK A01
KTHA 071755Z AUTO 00000KT 10SM FEW042 SCT049 SCT060 29/19 A3012 RMK A01
KTHA 071735Z AUTO 34007KT 9SM SCT042 BKN049 29/19 A3011 RMK A01
KTHA 071715Z AUTO 35007KT 10SM BKN040 29/19 A3012 RMK A01
KTHA 071655Z AUTO VRB04G11KT 10SM BKN038 28/19 A3012 RMK A01
KTHA 071635Z AUTO 00000KT 10SM BKN033 BKN039 28/20 A3012 RMK A01
KTHA 071615Z AUTO 05004KT 10SM SCT034 28/20 A3012 RMK A01
KTHA 071555Z AUTO VRB03KT 10SM FEW030 FEW035 27/20 A3012 RMK A01
KTHA 071535Z AUTO VRB03KT 10SM FEW029 27/20 A3011 RMK A01
KTHA 071515Z AUTO 02005KT 10SM CLR 27/20 A3011 RMK A01
KTHA 071455Z AUTO VRB06KT 10SM CLR 26/20 A3011 RMK A01
KTHA 071435Z AUTO VRB04KT 10SM CLR 26/21 A3011 RMK A01
KTHA 071415Z AUTO VRB04KT 10SM CLR 25/20 A3011 RMK A01
KTHA 071355Z AUTO 01004KT 10SM CLR 25/20 A3010 RMK A01
KTHA 071335Z AUTO VRB04KT 10SM CLR 24/20 A3010 RMK A01
KTHA 071315Z AUTO 00000KT 10SM CLR 23/20 A3010 RMK A01
KTHA 071255Z AUTO 06005KT 10SM CLR 22/19 A3010 RMK A01
KTHA 071235Z AUTO 06004KT 10SM CLR 22/19 A3010 RMK A01
KTHA 071215Z AUTO 36003KT 10SM CLR 21/19 A3010 RMK A01
KTHA 071155Z AUTO 00000KT 9SM CLR 20/18 A3009 RMK A01
KTHA 071135Z AUTO 00000KT 4SM BR CLR 18/18 A3009 RMK A01
KTHA 071115Z AUTO 00000KT 8SM CLR 19/18 A3009 RMK A01
KTHA 071055Z AUTO 00000KT 10SM CLR 19/18 A3008 RMK A01
KTHA 071035Z AUTO 00000KT 5SM BR CLR 18/18 A3008 RMK A01
KTHA 071015Z AUTO 00000KT 6SM BR CLR 18/17 A3008 RMK A01
KTHA 070955Z AUTO 00000KT 9SM CLR 19/18 A3007 RMK A01